Time;durP1;ratioP1;P1;durP2;ratioP2;P2;SDS_P1;SDS_P2;PMS_P1;PMS_P2;Temp;Humidity;BMP_temperature;BMP_pressure;BME280_temperature;BME280_humidity;BME280_pressure;Samples;Min_cycle;Max_cycle;Signal;HPM_P1;HPM_P2
2022/01/31 00:00:36;;;;;;;21.43;3.20;;;;;;;6.86;43.01;101382.34;2583569;23;20151;-69
2022/01/31 00:01:37;;;;;;;15.17;2.53;;;;;;;6.75;42.91;101363.03;2583552;23;20177;-69
2022/01/31 00:02:38;;;;;;;13.47;2.47;;;;;;;6.80;42.58;101381.97;2583494;23;20182;-69
2022/01/31 00:03:38;;;;;;;17.60;2.97;;;;;;;6.76;42.26;101383.13;2583605;23;20158;-69
2022/01/31 00:04:39;;;;;;;17.33;2.70;;;;;;;6.36;42.75;101326.31;2583540;23;20146;-69
2022/01/31 00:05:40;;;;;;;19.30;2.80;;;;;;;6.71;43.00;101383.50;2583459;23;20154;-69
2022/01/31 00:06:42;;;;;;;15.80;2.80;;;;;;;6.60;43.13;101372.44;2582663;23;20155;-70
2022/01/31 00:07:43;;;;;;;20.80;3.00;;;;;;;6.59;43.26;101384.63;2582958;23;20154;-69
2022/01/31 00:08:44;;;;;;;15.00;3.10;;;;;;;6.61;43.07;101385.03;2595248;22;20178;-70
2022/01/31 00:09:45;;;;;;;19.83;3.13;;;;;;;6.66;42.84;101389.38;2595514;22;20191;-69
2022/01/31 00:10:45;;;;;;;16.80;3.53;;;;;;;6.56;43.32;101371.63;2583483;23;20146;-69
2022/01/31 00:11:55;;;;;;;19.30;3.10;;;;;;;6.16;42.56;101291.22;2583222;23;20150;-69
2022/01/31 00:13:16;;;;;;;12.02;2.30;;;;;;;6.65;42.73;101382.28;2583802;23;20140;-69
2022/01/31 00:14:30;;;;;;;21.80;3.15;;;;;;;5.99;43.18;101284.47;2583607;23;20603;-70
2022/01/31 00:15:36;;;;;;;21.13;2.95;;;;;;;5.97;43.03;101283.25;2583629;23;20169;-70
2022/01/31 00:16:36;;;;;;;13.23;2.80;;;;;;;6.56;42.99;101385.41;2583597;23;20131;-70
2022/01/31 00:17:37;;;;;;;21.67;3.40;;;;;;;6.51;43.38;101382.25;2583757;23;20233;-69
2022/01/31 00:18:37;;;;;;;18.73;3.53;;;;;;;5.52;42.87;101240.56;2583524;23;20143;-69
2022/01/31 00:19:39;;;;;;;28.27;4.03;;;;;;;6.55;43.08;101392.09;2583482;23;20149;-69
2022/01/31 00:20:40;;;;;;;20.10;3.03;;;;;;;6.54;42.64;101381.44;2582435;23;20158;-69
2022/01/31 00:21:40;;;;;;;19.40;3.73;;;;;;;6.57;43.01;101392.47;2583071;23;20605;-69
2022/01/31 00:22:41;;;;;;;17.83;3.13;;;;;;;6.55;42.70;101380.25;2570171;23;20617;-69
2022/01/31 00:23:41;;;;;;;15.23;3.03;;;;;;;6.44;43.10;101368.41;2570235;23;20273;-69
2022/01/31 00:24:42;;;;;;;14.43;2.90;;;;;;;6.54;43.24;101403.47;2583425;23;20158;-70
2022/01/31 00:25:42;;;;;;;14.13;2.90;;;;;;;6.25;43.38;101357.72;2570070;23;20579;-70
2022/01/31 00:26:43;;;;;;;20.00;3.00;;;;;;;6.49;43.11;101396.38;2570021;23;20154;-69
2022/01/31 00:27:44;;;;;;;18.53;2.93;;;;;;;6.10;43.35;101336.81;2582689;23;20178;-69
2022/01/31 00:28:44;;;;;;;14.60;2.73;;;;;;;6.63;42.71;101395.66;2583348;23;20185;-68
2022/01/31 00:29:45;;;;;;;15.67;2.97;;;;;;;6.60;42.82;101407.44;2583416;23;20234;-69
2022/01/31 00:30:46;;;;;;;17.70;3.33;;;;;;;6.54;42.99;101398.78;2583347;23;20146;-68
2022/01/31 00:31:47;;;;;;;12.05;2.10;;;;;;;6.13;42.72;101336.81;2583426;23;20140;-68
2022/01/31 00:32:48;;;;;;;19.83;2.87;;;;;;;6.49;42.95;101396.38;2583491;23;20151;-69
2022/01/31 00:33:48;;;;;;;16.40;3.33;;;;;;;6.27;42.92;101349.84;2583321;23;20150;-69
2022/01/31 00:34:49;;;;;;;18.53;3.10;;;;;;;6.11;42.90;101336.41;2583441;23;20154;-69
2022/01/31 00:35:49;;;;;;;15.10;2.93;;;;;;;6.49;43.17;101398.34;2583277;23;20242;-69
2022/01/31 00:36:50;;;;;;;13.17;2.10;;;;;;;6.46;42.77;101394.38;2569968;23;20160;-69
2022/01/31 00:37:51;;;;;;;13.97;3.10;;;;;;;6.28;42.93;101368.75;2570143;23;20170;-69
2022/01/31 00:38:51;;;;;;;15.67;3.10;;;;;;;5.87;42.62;101298.56;2583387;23;20478;-69
2022/01/31 00:39:52;;;;;;;15.63;2.50;;;;;;;6.46;43.25;101393.63;2583423;23;20150;-69
2022/01/31 00:40:53;;;;;;;21.00;3.20;;;;;;;5.51;43.33;101243.66;2583360;23;20553;-68
2022/01/31 00:41:53;;;;;;;18.30;3.20;;;;;;;5.92;42.95;101324.91;2583413;23;20160;-69
2022/01/31 00:42:54;;;;;;;14.20;2.63;;;;;;;6.37;43.48;101380.22;2583356;23;20150;-69
2022/01/31 00:44:12;;;;;;;22.13;3.30;;;;;;;6.05;43.26;101332.44;2583477;23;20149;-68
2022/01/31 00:45:17;;;;;;;17.50;2.70;;;;;;;6.42;43.04;101390.06;2583504;23;20142;-68
2022/01/31 00:46:23;;;;;;;15.60;2.63;;;;;;;6.36;43.25;101381.34;2583386;23;20599;-68
2022/01/31 00:47:26;;;;;;;22.25;3.45;;;;;;;5.53;43.03;101244.88;2583790;23;20137;-69
2022/01/31 00:48:29;;;;;;;16.10;2.33;;;;;;;6.38;42.87;101386.47;2583263;23;20207;-68
2022/01/31 00:50:39;;;;;;;11.60;2.60;;;;;;;5.68;43.23;101279.53;2583157;23;20159;-68
2022/01/31 00:51:40;;;;;;;14.52;3.03;;;;;;;6.29;43.04;101378.59;2583513;23;20134;-69
2022/01/31 00:52:42;;;;;;;18.57;2.73;;;;;;;6.34;42.64;101380.97;2583389;23;20199;-69
2022/01/31 00:53:43;;;;;;;14.93;2.70;;;;;;;5.82;42.80;101290.66;2583179;23;20161;-69
2022/01/31 00:54:45;;;;;;;12.07;2.65;;;;;;;6.38;42.93;101373.53;2570006;23;20166;-68
2022/01/31 00:55:46;;;;;;;23.25;3.47;;;;;;;5.65;42.83;101271.28;2569943;23;20154;-69
2022/01/31 00:56:46;;;;;;;13.30;2.70;;;;;;;6.34;42.94;101383.72;2582599;23;20145;-69
2022/01/31 00:57:47;;;;;;;16.40;2.53;;;;;;;6.31;43.43;101380.94;2583317;23;20205;-69
2022/01/31 00:58:47;;;;;;;10.37;2.40;;;;;;;6.34;43.33;101380.16;2583408;23;20150;-69
2022/01/31 00:59:51;;;;;;;12.70;2.43;;;;;;;6.36;42.93;101375.84;2583306;23;20623;-68
2022/01/31 01:00:51;;;;;;;15.32;2.53;;;;;;;6.03;42.87;101345.00;2569863;23;20551;-69
2022/01/31 01:01:53;;;;;;;11.13;2.37;;;;;;;6.16;43.75;101382.03;2570020;23;20181;-68
2022/01/31 01:02:53;;;;;;;13.48;2.50;;;;;;;6.10;43.58;101373.34;2583316;23;20175;-69
2022/01/31 01:03:54;;;;;;;17.13;2.83;;;;;;;5.92;43.35;101346.91;2583296;23;20157;-69
2022/01/31 01:04:54;;;;;;;14.07;2.43;;;;;;;5.58;43.80;101283.00;2583261;23;20153;-68
2022/01/31 01:05:55;;;;;;;13.43;2.53;;;;;;;6.21;43.70;101370.66;2583280;23;20230;-69
2022/01/31 01:06:56;;;;;;;17.63;2.70;;;;;;;5.53;43.77;101286.09;2583335;23;20599;-69
2022/01/31 01:07:57;;;;;;;12.93;2.22;;;;;;;6.04;43.32;101355.63;2583547;23;20158;-69
2022/01/31 01:08:57;;;;;;;12.03;2.77;;;;;;;6.10;43.90;101375.34;2583113;23;20178;-68
2022/01/31 01:09:58;;;;;;;13.97;2.70;;;;;;;6.15;43.69;101358.47;2583409;23;20154;-69
2022/01/31 01:10:58;;;;;;;16.27;2.33;;;;;;;6.18;43.14;101369.47;2583285;23;20148;-69
2022/01/31 01:11:59;;;;;;;11.73;2.20;;;;;;;6.15;43.30;101361.97;2583077;23;20253;-68
2022/01/31 01:13:00;;;;;;;11.23;2.07;;;;;;;6.18;44.01;101366.72;2583304;23;20150;-68
2022/01/31 01:14:00;;;;;;;15.30;2.60;;;;;;;6.22;43.37;101373.03;2583259;23;20161;-69
2022/01/31 01:15:01;;;;;;;17.60;2.70;;;;;;;5.54;43.60;101275.91;2583222;23;20149;-68
2022/01/31 01:16:01;;;;;;;16.17;2.93;;;;;;;6.18;43.57;101368.69;2583201;23;20165;-69
2022/01/31 01:17:02;;;;;;;16.10;2.30;;;;;;;6.18;43.75;101363.97;2583226;23;20213;-69
2022/01/31 01:18:03;;;;;;;18.93;3.00;;;;;;;5.77;43.83;101304.75;2583239;23;20157;-69
2022/01/31 01:19:04;;;;;;;14.77;2.50;;;;;;;6.18;43.46;101363.16;2583167;23;20149;-69
2022/01/31 01:20:05;;;;;;;17.30;2.90;;;;;;;6.16;43.00;101368.28;2583205;23;20156;-68
2022/01/31 01:21:06;;;;;;;15.35;2.78;;;;;;;6.08;43.79;101359.19;2583216;23;20151;-68
2022/01/31 01:22:06;;;;;;;11.93;2.47;;;;;;;6.08;44.07;101352.88;2583275;23;20605;-69
2022/01/31 01:23:07;;;;;;;18.20;2.83;;;;;;;6.11;44.00;101357.63;2583236;23;20152;-69
2022/01/31 01:24:07;;;;;;;16.20;2.33;;;;;;;6.12;43.59;101373.78;2583272;23;20596;-69
2022/01/31 01:25:09;;;;;;;14.13;2.60;;;;;;;6.11;43.87;101363.16;2583212;23;20498;-68
2022/01/31 01:26:09;;;;;;;12.73;2.17;;;;;;;6.10;43.55;101359.59;2583202;23;20158;-69
2022/01/31 01:27:10;;;;;;;20.10;3.00;;;;;;;5.47;43.84;101264.84;2583243;23;20175;-68
2022/01/31 01:28:11;;;;;;;10.67;2.40;;;;;;;6.03;43.82;101359.56;2583156;23;20148;-68
2022/01/31 01:29:11;;;;;;;13.73;2.47;;;;;;;6.03;43.73;101359.56;2583012;23;20194;-69
2022/01/31 01:30:14;;;;;;;12.63;2.53;;;;;;;6.09;43.60;101355.25;2583197;23;20161;-68
2022/01/31 01:31:15;;;;;;;13.55;2.40;;;;;;;5.49;43.58;101259.78;2583196;23;20636;-68
2022/01/31 01:32:16;;;;;;;16.03;2.03;;;;;;;5.62;43.70;101269.28;2583137;23;20510;-69
2022/01/31 01:33:20;;;;;;;12.40;2.60;;;;;;;5.45;43.23;101251.50;2569712;23;20214;-69
2022/01/31 01:34:22;;;;;;;12.38;2.53;;;;;;;5.90;43.50;101325.28;2570425;23;20186;-68
2022/01/31 01:35:25;;;;;;;12.50;2.58;;;;;;;6.17;44.10;101359.66;2583122;23;20153;-69
2022/01/31 01:36:25;;;;;;;16.73;2.33;;;;;;;6.17;43.71;101361.59;2583185;23;20203;-69
2022/01/31 01:37:26;;;;;;;14.20;2.83;;;;;;;6.16;43.71;101362.78;2583124;23;20178;-68
2022/01/31 01:38:29;;;;;;;14.43;2.83;;;;;;;6.07;44.00;101348.56;2583125;23;20151;-69
2022/01/31 01:39:30;;;;;;;11.90;2.65;;;;;;;5.63;43.92;101299.13;2583144;23;20144;-68
2022/01/31 01:40:36;;;;;;;8.02;2.40;;;;;;;6.03;44.09;101359.56;2583055;23;20151;-69
2022/01/31 01:41:37;;;;;;;11.30;2.95;;;;;;;6.12;43.62;101361.97;2583328;23;20140;-68
2022/01/31 01:42:37;;;;;;;12.40;3.13;;;;;;;6.14;43.70;101363.16;2583304;23;20185;-69
2022/01/31 01:43:38;;;;;;;15.60;2.80;;;;;;;6.17;43.31;101362.41;2583044;23;20257;-69
2022/01/31 01:44:47;;;;;;;17.03;2.43;;;;;;;6.21;43.66;101360.44;2583267;23;20182;-69
2022/01/31 01:45:52;;;;;;;12.15;2.88;;;;;;;6.16;43.10;101352.53;2583096;23;20132;-69
2022/01/31 01:46:54;;;;;;;22.23;2.53;;;;;;;6.18;43.22;101358.47;2583228;23;20159;-68
2022/01/31 01:47:55;;;;;;;12.30;2.72;;;;;;;6.23;42.81;101360.84;2583089;23;20150;-68
2022/01/31 01:48:55;;;;;;;14.37;3.03;;;;;;;5.93;43.52;101319.00;2582214;23;20258;-69
2022/01/31 01:49:56;;;;;;;12.33;2.30;;;;;;;6.18;43.29;101352.16;2582482;23;20154;-68
2022/01/31 01:50:57;;;;;;;18.07;2.80;;;;;;;6.12;43.17;101359.22;2569745;23;20183;-68
2022/01/31 01:51:58;;;;;;;17.83;2.83;;;;;;;6.14;43.39;101365.09;2570048;23;20161;-69
2022/01/31 01:53:00;;;;;;;11.70;2.67;;;;;;;6.17;43.53;101356.91;2582571;23;20175;-69
2022/01/31 01:54:01;;;;;;;19.75;2.80;;;;;;;6.20;43.08;101360.84;2583138;23;20176;-69
2022/01/31 01:55:02;;;;;;;16.70;3.10;;;;;;;5.57;43.31;101275.94;2583104;23;20173;-69
2022/01/31 01:56:03;;;;;;;15.80;3.07;;;;;;;6.11;43.31;101360.38;2569747;23;20165;-69
2022/01/31 01:57:04;;;;;;;12.87;3.00;;;;;;;5.49;43.82;101290.78;2569985;23;20152;-69
2022/01/31 01:58:12;;;;;;;18.25;2.88;;;;;;;6.09;43.60;101362.72;2583167;23;20635;-69
2022/01/31 01:59:13;;;;;;;12.45;2.67;;;;;;;5.89;44.16;101345.69;2583104;23;20136;-68
2022/01/31 02:00:18;;;;;;;13.97;3.00;;;;;;;4.94;44.04;101211.47;2583111;23;20182;-69
2022/01/31 02:01:19;;;;;;;17.55;3.00;;;;;;;6.04;43.73;101354.81;2583165;23;20211;-69
2022/01/31 02:02:20;;;;;;;12.67;3.17;;;;;;;6.03;44.23;101356.00;2583248;23;20605;-69
2022/01/31 02:03:21;;;;;;;11.37;2.67;;;;;;;5.78;43.93;101324.75;2583916;23;20214;-69
2022/01/31 02:04:22;;;;;;;13.73;2.67;;;;;;;5.66;44.04;101320.38;2584011;23;20598;-69
2022/01/31 02:05:22;;;;;;;13.70;2.37;;;;;;;5.98;43.82;101356.38;2583980;23;20536;-69
2022/01/31 02:06:23;;;;;;;12.17;3.10;;;;;;;6.02;44.25;101366.25;2583984;23;20214;-68
2022/01/31 02:07:24;;;;;;;13.83;3.10;;;;;;;6.04;43.80;101352.06;2583886;23;20151;-69
2022/01/31 02:08:27;;;;;;;11.30;2.53;;;;;;;6.05;43.65;101356.44;2583810;23;20158;-68
2022/01/31 02:09:30;;;;;;;10.43;2.40;;;;;;;6.01;43.84;101353.63;2584139;23;20144;-68
2022/01/31 02:10:30;;;;;;;13.05;2.72;;;;;;;5.65;44.07;101310.53;2583936;23;20151;-69
2022/01/31 02:11:31;;;;;;;10.23;2.87;;;;;;;5.95;44.12;101359.91;2584114;23;20154;-69
2022/01/31 02:12:43;;;;;;;13.83;2.67;;;;;;;5.99;43.85;101346.94;2583838;23;20198;-69
2022/01/31 02:13:43;;;;;;;11.60;2.30;;;;;;;6.07;44.03;101354.88;2583898;23;20151;-69
2022/01/31 02:14:44;;;;;;;8.73;2.37;;;;;;;5.83;43.51;101330.75;2583844;23;20628;-68
2022/01/31 02:15:50;;;;;;;11.57;2.83;;;;;;;6.00;43.76;101354.81;2583991;23;20181;-69
2022/01/31 02:16:51;;;;;;;16.13;2.92;;;;;;;5.58;43.74;101304.19;2584111;23;20574;-68
2022/01/31 02:17:52;;;;;;;13.45;2.90;;;;;;;5.80;44.12;101333.47;2583971;23;20147;-69
2022/01/31 02:18:54;;;;;;;11.43;2.60;;;;;;;6.02;44.00;101352.47;2584060;23;20179;-69
2022/01/31 02:19:55;;;;;;;18.67;2.97;;;;;;;5.93;43.87;101360.28;2583946;23;20605;-69
2022/01/31 02:20:55;;;;;;;20.53;2.60;;;;;;;5.87;44.33;101353.56;2583924;23;20512;-68
2022/01/31 02:21:56;;;;;;;14.17;2.43;;;;;;;5.98;43.89;101357.16;2583713;23;20174;-69
2022/01/31 02:22:57;;;;;;;11.50;2.43;;;;;;;6.03;43.78;101367.81;2583829;23;20147;-69
2022/01/31 02:23:58;;;;;;;15.68;2.60;;;;;;;5.14;43.80;101232.81;2583838;23;20152;-68
2022/01/31 02:24:59;;;;;;;17.07;3.23;;;;;;;5.92;43.81;101369.72;2583698;23;20205;-69
2022/01/31 02:26:05;;;;;;;12.80;2.90;;;;;;;5.93;44.19;101364.97;2583922;23;20277;-69
2022/01/31 02:27:05;;;;;;;11.88;2.47;;;;;;;5.90;44.01;101365.75;2583930;23;20871;-69
2022/01/31 02:28:06;;;;;;;10.90;2.33;;;;;;;5.92;44.45;101371.66;2583924;23;20476;-69
2022/01/31 02:29:08;;;;;;;9.53;2.47;;;;;;;5.95;43.68;101374.44;2583810;23;20266;-69
2022/01/31 02:30:12;;;;;;;14.90;2.58;;;;;;;5.94;44.33;101352.81;2583845;23;20151;-69
2022/01/31 02:31:12;;;;;;;12.45;2.50;;;;;;;6.00;43.47;101363.06;2583837;23;20151;-69
2022/01/31 02:32:13;;;;;;;13.77;2.50;;;;;;;5.97;43.58;101366.59;2570423;23;20164;-69
2022/01/31 02:33:13;;;;;;;12.80;2.47;;;;;;;5.67;43.98;101345.91;2570449;23;20176;-68
2022/01/31 02:34:15;;;;;;;16.03;3.17;;;;;;;6.02;43.80;101373.69;2570515;23;20239;-69
2022/01/31 02:35:15;;;;;;;11.98;2.72;;;;;;;5.45;43.66;101306.50;2570716;23;20231;-69
2022/01/31 02:36:16;;;;;;;13.57;2.80;;;;;;;6.01;43.76;101374.88;2583834;23;20151;-69
2022/01/31 02:37:18;;;;;;;13.17;2.90;;;;;;;5.75;43.99;101342.03;2584000;23;20171;-69
2022/01/31 02:38:19;;;;;;;13.40;2.50;;;;;;;5.62;43.73;101305.00;2583851;23;20151;-69
2022/01/31 02:39:19;;;;;;;12.77;2.65;;;;;;;5.96;43.80;101378.78;2570437;23;20251;-69
2022/01/31 02:40:19;;;;;;;13.30;2.83;;;;;;;5.98;44.19;101381.13;2570646;23;20219;-68
2022/01/31 02:41:20;;;;;;;15.00;3.00;;;;;;;6.01;44.00;101375.63;2584170;23;20164;-69
2022/01/31 02:42:20;;;;;;;20.00;2.90;;;;;;;5.98;44.49;101376.44;2583795;23;20162;-69
2022/01/31 02:43:24;;;;;;;20.57;2.60;;;;;;;5.95;44.07;101385.44;2570412;23;20186;-68
2022/01/31 02:44:24;;;;;;;12.98;2.30;;;;;;;5.99;43.52;101385.44;2570943;23;20156;-69
2022/01/31 02:45:25;;;;;;;23.47;3.07;;;;;;;5.34;43.70;101282.84;2583791;23;20148;-69
2022/01/31 02:46:27;;;;;;;11.57;2.60;;;;;;;6.09;43.51;101379.22;2583809;23;20220;-69
2022/01/31 02:47:31;;;;;;;20.42;3.22;;;;;;;5.63;43.81;101320.34;2583825;23;20148;-69
2022/01/31 02:48:35;;;;;;;12.68;2.50;;;;;;;6.13;43.39;101380.84;2583692;23;20500;-69
2022/01/31 02:49:45;;;;;;;11.80;2.80;;;;;;;6.09;43.52;101376.47;2583837;23;20152;-68
2022/01/31 02:50:45;;;;;;;11.43;2.65;;;;;;;5.96;43.26;101369.72;2570423;23;20669;-69
2022/01/31 02:51:55;;;;;;;13.80;2.70;;;;;;;6.06;43.62;101374.50;2570575;23;20563;-69
2022/01/31 02:53:10;;;;;;;17.67;2.90;;;;;;;6.03;43.93;101375.25;2583936;23;20136;-69
2022/01/31 02:54:11;;;;;;;18.50;3.75;;;;;;;5.32;44.30;101301.63;2583822;23;20155;-69
2022/01/31 02:55:11;;;;;;;20.30;3.07;;;;;;;5.90;44.18;101372.03;2583522;23;20152;-69
2022/01/31 02:56:12;;;;;;;17.17;2.73;;;;;;;5.94;43.99;101383.09;2583948;23;20159;-69
2022/01/31 02:57:12;;;;;;;11.80;2.50;;;;;;;5.87;44.53;101363.75;2583660;23;20155;-69
2022/01/31 02:58:14;;;;;;;12.70;2.60;;;;;;;5.90;44.20;101372.03;2583804;23;20158;-69
2022/01/31 02:59:15;;;;;;;11.15;2.60;;;;;;;5.96;44.47;101373.28;2583883;23;20147;-68
2022/01/31 03:00:15;;;;;;;12.80;2.40;;;;;;;5.92;43.97;101380.72;2583745;23;20230;-68
2022/01/31 03:01:16;;;;;;;12.63;2.60;;;;;;;5.92;44.24;101374.41;2583712;23;20238;-69
2022/01/31 03:02:16;;;;;;;13.90;2.83;;;;;;;5.52;43.96;101322.22;2583757;23;20208;-68
2022/01/31 03:03:17;;;;;;;12.97;2.77;;;;;;;5.88;44.07;101379.88;2583765;23;20173;-69
2022/01/31 03:04:18;;;;;;;12.40;2.43;;;;;;;5.89;43.89;101367.72;2583651;23;20151;-69
2022/01/31 03:05:19;;;;;;;10.93;2.50;;;;;;;5.85;44.23;101371.63;2583662;23;20158;-69
2022/01/31 03:06:19;;;;;;;12.30;2.30;;;;;;;5.86;44.03;101378.69;2583862;23;20583;-69
2022/01/31 03:07:20;;;;;;;8.67;2.23;;;;;;;5.83;43.96;101357.44;2570236;23;20621;-69
2022/01/31 03:08:22;;;;;;;14.40;2.33;;;;;;;5.32;43.80;101274.16;2570376;23;20149;-69
2022/01/31 03:09:23;;;;;;;9.23;2.05;;;;;;;5.88;44.03;101352.38;2583767;23;20240;-69
2022/01/31 03:10:23;;;;;;;9.80;2.50;;;;;;;6.00;43.90;101367.78;2583612;23;20159;-69
2022/01/31 03:11:24;;;;;;;16.93;2.97;;;;;;;5.99;43.86;101367.00;2583658;23;20234;-68
2022/01/31 03:12:24;;;;;;;11.33;2.40;;;;;;;5.70;44.11;101317.66;2583599;23;20198;-69
2022/01/31 03:13:25;;;;;;;9.50;2.30;;;;;;;5.82;44.11;101348.41;2583585;23;20171;-69
2022/01/31 03:14:25;;;;;;;13.90;2.50;;;;;;;4.98;43.79;101218.56;2583496;23;20151;-68
2022/01/31 03:15:26;;;;;;;12.63;2.27;;;;;;;5.92;44.24;101368.91;2583513;23;20154;-69
2022/01/31 03:16:27;;;;;;;7.77;2.47;;;;;;;5.97;43.61;101358.34;2583660;23;20201;-69
2022/01/31 03:17:27;;;;;;;11.97;2.40;;;;;;;5.95;44.04;101360.66;2583756;23;20384;-69
2022/01/31 03:18:30;;;;;;;11.13;2.80;;;;;;;5.91;44.59;101354.38;2570190;23;20156;-69
2022/01/31 03:19:31;;;;;;;13.55;2.30;;;;;;;5.96;44.19;101353.22;2570751;23;20503;-69
2022/01/31 03:20:32;;;;;;;13.00;2.67;;;;;;;5.97;43.94;101350.09;2570252;23;20182;-69
2022/01/31 03:21:32;;;;;;;8.57;2.40;;;;;;;5.27;44.08;101242.34;2570469;23;20155;-69
2022/01/31 03:22:33;;;;;;;11.63;2.47;;;;;;;5.93;43.96;101354.78;2583861;23;20496;-69
2022/01/31 03:23:34;;;;;;;10.47;3.07;;;;;;;5.99;44.33;101347.72;2583641;23;20233;-69
2022/01/31 03:24:35;;;;;;;9.43;2.17;;;;;;;5.40;44.05;101262.88;2583545;23;20150;-69
2022/01/31 03:25:36;;;;;;;6.43;2.37;;;;;;;5.99;44.21;101361.50;2583510;23;20162;-69
2022/01/31 03:26:37;;;;;;;11.00;3.10;;;;;;;5.93;44.29;101349.28;2583591;23;20198;-69
2022/01/31 03:27:39;;;;;;;10.50;2.03;;;;;;;5.99;44.15;101350.47;2583738;23;20572;-68
2022/01/31 03:28:39;;;;;;;11.13;2.25;;;;;;;6.03;44.35;101353.25;2583359;23;20624;-68
2022/01/31 03:29:40;;;;;;;12.23;2.00;;;;;;;6.01;44.16;101339.09;2583724;23;20491;-69
2022/01/31 03:30:40;;;;;;;11.23;2.70;;;;;;;5.93;43.88;101352.03;2583585;23;20147;-68
2022/01/31 03:31:41;;;;;;;13.57;2.30;;;;;;;5.43;44.05;101264.81;2583834;23;20155;-69
2022/01/31 03:32:42;;;;;;;12.13;2.77;;;;;;;5.98;44.45;101343.41;2583555;23;20143;-69
2022/01/31 03:33:42;;;;;;;15.47;2.50;;;;;;;5.99;43.93;101346.94;2583485;23;20148;-69
2022/01/31 03:34:43;;;;;;;11.27;2.33;;;;;;;6.01;44.32;101350.88;2583743;23;20202;-69
2022/01/31 03:35:43;;;;;;;7.40;2.13;;;;;;;5.84;43.81;101332.31;2583483;23;20590;-69
2022/01/31 03:36:44;;;;;;;9.23;2.40;;;;;;;5.77;44.13;101324.00;2583665;23;20228;-69
2022/01/31 03:37:45;;;;;;;10.30;2.70;;;;;;;5.98;44.15;101346.16;2583601;23;20155;-69
2022/01/31 03:38:46;;;;;;;17.67;2.53;;;;;;;5.97;44.59;101355.59;2583547;23;20525;-69
2022/01/31 03:39:47;;;;;;;12.13;2.35;;;;;;;5.50;43.97;101261.34;2570168;23;20591;-68
2022/01/31 03:40:47;;;;;;;17.60;2.83;;;;;;;6.03;44.09;101342.25;2570372;23;20239;-68
2022/01/31 03:41:48;;;;;;;17.07;3.37;;;;;;;6.00;44.28;101343.81;2583497;23;20535;-69
2022/01/31 03:42:48;;;;;;;14.30;2.53;;;;;;;5.94;44.33;101333.56;2583576;23;20143;-69
2022/01/31 03:43:49;;;;;;;8.87;2.30;;;;;;;5.97;44.65;101343.78;2583606;23;20208;-69
2022/01/31 03:44:49;;;;;;;7.20;1.93;;;;;;;6.00;44.47;101343.03;2583626;23;20527;-68
2022/01/31 03:45:50;;;;;;;14.83;2.67;;;;;;;5.99;44.14;101341.44;2583574;23;20495;-69
2022/01/31 03:46:50;;;;;;;13.43;2.50;;;;;;;5.93;43.98;101351.22;2583683;23;20548;-69
2022/01/31 03:47:51;;;;;;;9.37;2.03;;;;;;;5.99;44.21;101342.22;2570262;23;20163;-69
2022/01/31 03:48:52;;;;;;;12.80;2.40;;;;;;;5.96;44.16;101337.50;2582632;23;20193;-69
2022/01/31 03:49:52;;;;;;;12.83;2.17;;;;;;;5.95;43.90;101344.16;2595654;22;20160;-69
2022/01/31 03:50:53;;;;;;;7.73;2.30;;;;;;;5.51;44.46;101312.41;2583483;23;20152;-69
2022/01/31 03:51:53;;;;;;;7.20;2.10;;;;;;;5.83;44.28;101330.75;2583564;23;20185;-70
2022/01/31 03:52:54;;;;;;;9.27;2.43;;;;;;;6.00;44.34;101362.28;2583644;23;20585;-70
2022/01/31 03:53:54;;;;;;;10.73;2.10;;;;;;;6.02;43.54;101351.69;2583454;23;20152;-69
2022/01/31 03:54:56;;;;;;;10.53;2.00;;;;;;;5.45;43.89;101265.25;2583672;23;20152;-69
2022/01/31 03:55:56;;;;;;;10.68;2.67;;;;;;;6.01;43.94;101359.13;2570063;23;20160;-69
2022/01/31 03:56:57;;;;;;;13.37;2.57;;;;;;;5.61;44.10;101296.00;2570212;23;20150;-69
2022/01/31 03:57:58;;;;;;;12.97;2.67;;;;;;;5.94;44.19;101353.59;2583598;23;20151;-69
2022/01/31 03:58:58;;;;;;;10.00;2.20;;;;;;;5.87;44.69;101358.25;2583565;23;20151;-69
2022/01/31 04:00:00;;;;;;;12.13;2.30;;;;;;;5.83;44.59;101357.44;2583589;23;20607;-69
2022/01/31 04:01:01;;;;;;;9.63;2.40;;;;;;;5.89;44.62;101353.97;2570185;23;20163;-69
2022/01/31 04:02:04;;;;;;;10.73;2.80;;;;;;;5.91;44.34;101372.84;2570382;23;20152;-69
2022/01/31 04:03:05;;;;;;;8.20;2.25;;;;;;;5.92;44.55;101358.72;2583778;23;20237;-70
2022/01/31 04:04:10;;;;;;;14.83;2.23;;;;;;;5.91;44.12;101359.09;2583504;23;20154;-69
2022/01/31 04:05:10;;;;;;;9.82;2.30;;;;;;;5.94;44.15;101347.31;2583655;23;20193;-69
2022/01/31 04:06:11;;;;;;;11.57;2.50;;;;;;;5.92;44.55;101355.16;2583584;23;20154;-69
2022/01/31 04:07:12;;;;;;;7.90;2.40;;;;;;;5.63;44.73;101317.59;2583463;23;20155;-69
2022/01/31 04:08:12;;;;;;;9.17;2.20;;;;;;;5.86;44.89;101359.44;2583530;23;20155;-69
2022/01/31 04:09:12;;;;;;;10.07;2.30;;;;;;;5.79;44.34;101354.63;2583519;23;20186;-69
2022/01/31 04:10:13;;;;;;;11.67;2.20;;;;;;;5.91;44.70;101362.63;2583565;23;20184;-69
2022/01/31 04:11:14;;;;;;;7.97;2.27;;;;;;;5.86;44.30;101363.00;2583517;23;20158;-69
2022/01/31 04:12:14;;;;;;;11.70;2.30;;;;;;;5.28;44.62;101296.13;2583342;23;20213;-69
2022/01/31 04:13:16;;;;;;;10.53;2.37;;;;;;;5.82;44.42;101369.63;2583643;23;20173;-68
2022/01/31 04:14:17;;;;;;;13.07;2.20;;;;;;;5.36;44.26;101281.28;2583446;23;20157;-69
2022/01/31 04:15:17;;;;;;;15.73;2.30;;;;;;;5.87;44.58;101363.75;2583469;23;20238;-69
2022/01/31 04:16:17;;;;;;;10.73;2.07;;;;;;;5.83;44.49;101369.25;2582651;23;20188;-69
2022/01/31 04:17:21;;;;;;;7.70;2.40;;;;;;;5.84;44.55;101386.56;2570119;23;20160;-70
2022/01/31 04:18:22;;;;;;;8.77;2.42;;;;;;;5.82;44.71;101361.38;2570790;23;20152;-69
2022/01/31 04:19:23;;;;;;;10.53;2.20;;;;;;;5.81;44.47;101366.09;2583522;23;20237;-70
2022/01/31 04:20:24;;;;;;;9.43;2.28;;;;;;;5.64;44.47;101341.97;2583415;23;20159;-69
2022/01/31 04:21:24;;;;;;;10.57;2.10;;;;;;;5.86;44.78;101376.75;2583750;23;20152;-69
2022/01/31 04:22:28;;;;;;;9.90;2.53;;;;;;;5.84;44.55;101376.31;2583603;23;20167;-69
2022/01/31 04:23:29;;;;;;;11.80;2.22;;;;;;;5.82;44.80;101372.38;2583456;23;20147;-69
2022/01/31 04:24:33;;;;;;;10.75;2.25;;;;;;;5.92;43.83;101377.16;2583372;23;20209;-69
2022/01/31 04:25:53;;;;;;;8.77;1.95;;;;;;;5.62;43.55;101327.00;2569745;23;20152;-69
2022/01/31 04:26:59;;;;;;;10.02;2.20;;;;;;;5.90;44.33;101379.50;2574601;23;20190;-69
2022/01/31 04:28:04;;;;;;;10.25;2.30;;;;;;;5.86;44.32;101378.69;2570255;23;20167;-69
2022/01/31 04:29:07;;;;;;;11.68;2.25;;;;;;;5.84;44.09;101381.81;2570998;23;20172;-69
2022/01/31 04:30:09;;;;;;;8.45;2.13;;;;;;;5.81;44.03;101370.81;2583545;23;20152;-69
2022/01/31 04:32:11;;;;;;;9.57;2.42;;;;;;;5.69;44.62;101357.34;2583454;23;20166;-69
2022/01/31 04:33:11;;;;;;;10.17;2.43;;;;;;;5.19;44.49;101283.88;2583423;23;20148;-69
2022/01/31 04:34:12;;;;;;;12.93;2.30;;;;;;;5.79;44.56;101381.38;2583440;23;20155;-69
2022/01/31 04:35:12;;;;;;;9.33;2.47;;;;;;;5.81;44.56;101376.28;2583375;23;20155;-70
2022/01/31 04:36:16;;;;;;;9.97;2.33;;;;;;;5.80;44.73;101380.22;2583498;23;20500;-69
2022/01/31 04:37:17;;;;;;;8.73;2.20;;;;;;;5.66;44.32;101355.34;2583526;23;20497;-69
2022/01/31 04:38:18;;;;;;;13.23;2.80;;;;;;;5.76;44.53;101390.38;2583340;23;20175;-69
2022/01/31 04:39:19;;;;;;;10.00;2.30;;;;;;;5.70;44.14;101373.44;2583385;23;20151;-69
2022/01/31 04:40:20;;;;;;;9.07;2.45;;;;;;;5.71;45.26;101376.97;2583653;23;20204;-69
2022/01/31 04:41:21;;;;;;;9.00;2.60;;;;;;;5.72;44.39;101382.09;2583387;23;20231;-69
2022/01/31 04:42:22;;;;;;;10.97;2.37;;;;;;;5.65;45.03;101382.03;2583410;23;20555;-69
2022/01/31 04:43:23;;;;;;;11.18;2.35;;;;;;;5.61;45.08;101374.94;2583438;23;20156;-69
2022/01/31 04:44:24;;;;;;;8.30;1.80;;;;;;;5.17;44.69;101298.00;2583296;23;20250;-69
2022/01/31 04:45:24;;;;;;;10.77;2.37;;;;;;;4.79;44.82;101248.19;2569915;23;20547;-69
2022/01/31 04:46:25;;;;;;;11.93;2.83;;;;;;;5.62;45.00;101368.25;2570140;23;20159;-69
2022/01/31 04:47:25;;;;;;;9.57;2.67;;;;;;;5.58;44.74;101373.72;2583271;23;20581;-69
2022/01/31 04:48:26;;;;;;;13.57;2.73;;;;;;;5.60;45.18;101376.09;2583407;23;20151;-69
2022/01/31 04:49:26;;;;;;;9.70;2.47;;;;;;;5.59;45.06;101378.06;2583356;23;20527;-69